createdAt,value
2022-10-02T00:00:02.223Z,49
2022-10-02T00:01:04.462Z,49
2022-10-02T00:02:06.396Z,49
2022-10-02T00:03:08.564Z,49
2022-10-02T00:04:10.506Z,48
2022-10-02T00:05:12.588Z,48
2022-10-02T00:08:04.222Z,48
2022-10-02T00:09:06.588Z,48
2022-10-02T00:10:08.836Z,48
2022-10-02T00:11:11.423Z,48
2022-10-02T00:12:13.259Z,49
2022-10-02T00:13:15.956Z,48
2022-10-02T00:14:18.396Z,48
2022-10-02T00:15:20.863Z,48
2022-10-02T00:16:22.186Z,49
2022-10-02T00:17:24.529Z,49
2022-10-02T00:18:26.574Z,49
2022-10-02T00:19:28.643Z,50
2022-10-02T00:20:31.420Z,50
2022-10-02T00:21:33.277Z,50
2022-10-02T00:22:35.399Z,50
2022-10-02T00:23:37.316Z,50
2022-10-02T00:24:39.958Z,49
2022-10-02T00:25:43.357Z,49
2022-10-02T00:26:46.196Z,49
2022-10-02T00:27:48.499Z,49
2022-10-02T00:28:50.836Z,49
2022-10-02T00:29:53.996Z,50
2022-10-02T00:30:56.501Z,50
2022-10-02T00:31:58.615Z,49
2022-10-02T00:33:01.556Z,50
2022-10-02T00:34:03.518Z,50
2022-10-02T00:35:06.411Z,49
2022-10-02T00:36:08.377Z,50
2022-10-02T00:37:10.357Z,49
2022-10-02T00:38:12.598Z,49
2022-10-02T00:39:14.437Z,49
2022-10-02T00:40:17.196Z,50
2022-10-02T00:41:19.376Z,50
2022-10-02T00:42:21.416Z,49
2022-10-02T00:43:23.837Z,49
2022-10-02T00:44:26.702Z,49
2022-10-02T00:45:28.871Z,50
2022-10-02T00:46:31.801Z,50
2022-10-02T00:47:34.759Z,49
2022-10-02T00:48:37.396Z,49
2022-10-02T00:49:39.416Z,49
2022-10-02T00:50:41.476Z,50
2022-10-02T00:51:43.336Z,49
2022-10-02T00:52:45.689Z,49
2022-10-02T00:53:47.437Z,49
2022-10-02T00:54:49.984Z,49
2022-10-02T00:55:52.577Z,49
2022-10-02T00:56:56.272Z,49
2022-10-02T00:57:58.156Z,50
2022-10-02T00:59:00.796Z,49
2022-10-02T01:00:03.251Z,49
2022-10-02T01:04:06.401Z,48
2022-10-02T01:05:08.037Z,48
2022-10-02T01:06:09.285Z,49
2022-10-02T01:07:11.444Z,48
2022-10-02T01:08:13.536Z,49
2022-10-02T01:09:15.317Z,48
2022-10-02T01:10:17.677Z,48
2022-10-02T01:11:19.357Z,49
2022-10-02T01:12:21.577Z,50
2022-10-02T01:13:23.896Z,50
2022-10-02T01:14:26.565Z,49
2022-10-02T01:15:28.378Z,49
2022-10-02T01:16:30.712Z,50
2022-10-02T01:17:32.357Z,49
2022-10-02T01:18:34.464Z,49
2022-10-02T01:19:36.557Z,50
2022-10-02T01:20:39.296Z,50
2022-10-02T01:21:41.196Z,49
2022-10-02T01:22:43.317Z,49
2022-10-02T01:23:45.424Z,49
2022-10-02T01:24:47.416Z,49
2022-10-02T01:25:50.357Z,50
2022-10-02T01:26:52.258Z,50
2022-10-02T01:27:54.291Z,49
2022-10-02T01:28:56.657Z,49
2022-10-02T01:29:59.425Z,49
2022-10-02T01:31:01.597Z,49
2022-10-02T01:32:03.496Z,49
2022-10-02T01:33:06.239Z,49
2022-10-02T01:34:08.297Z,50
2022-10-02T01:35:10.321Z,49
2022-10-02T01:36:12.556Z,50
2022-10-02T01:37:14.436Z,50
2022-10-02T01:38:16.573Z,50
2022-10-02T01:39:18.196Z,51
2022-10-02T01:40:20.376Z,50
2022-10-02T01:41:22.736Z,50
2022-10-02T01:42:24.585Z,50
2022-10-02T01:43:26.426Z,50
2022-10-02T01:44:28.261Z,50
2022-10-02T01:45:30.778Z,50
2022-10-02T01:46:33.506Z,49
2022-10-02T01:47:35.296Z,49
2022-10-02T01:48:37.257Z,49
2022-10-02T01:49:39.319Z,50
2022-10-02T01:50:41.379Z,50
2022-10-02T01:51:45.876Z,50
2022-10-02T01:52:46.457Z,51
2022-10-02T01:53:48.678Z,50
2022-10-02T01:54:51.237Z,50
2022-10-02T01:55:53.392Z,50
2022-10-02T01:56:55.236Z,50
2022-10-02T01:57:57.357Z,50
2022-10-02T01:58:59.814Z,50
2022-10-02T02:00:02.603Z,50
2022-10-02T02:01:04.578Z,50
2022-10-02T02:02:06.303Z,50
2022-10-02T02:03:08.376Z,50
2022-10-02T02:04:10.337Z,50
2022-10-02T02:05:12.607Z,50
2022-10-02T02:06:14.501Z,50
2022-10-02T02:07:16.757Z,49
2022-10-02T02:08:19.797Z,49
2022-10-02T02:09:21.196Z,50
2022-10-02T02:10:23.866Z,49
2022-10-02T02:11:26.416Z,50
2022-10-02T02:12:28.565Z,50
2022-10-02T02:13:31.698Z,50
2022-10-02T02:14:34.577Z,50
2022-10-02T02:15:36.396Z,50
2022-10-02T02:16:38.697Z,50
2022-10-02T02:17:40.256Z,51
2022-10-02T02:18:42.557Z,51
2022-10-02T02:19:44.856Z,50
2022-10-02T02:20:47.440Z,51
2022-10-02T02:21:49.148Z,51
2022-10-02T02:22:51.297Z,51
2022-10-02T02:23:53.364Z,51
2022-10-02T02:24:55.559Z,52
2022-10-02T02:25:57.176Z,51
2022-10-02T02:26:59.404Z,50
2022-10-02T02:28:01.292Z,51
2022-10-02T02:29:03.478Z,51
2022-10-02T02:30:05.867Z,50
2022-10-02T02:31:08.591Z,51
2022-10-02T02:32:10.457Z,51
2022-10-02T02:33:12.416Z,51
2022-10-02T02:34:16.857Z,50
2022-10-02T02:35:18.356Z,51
2022-10-02T02:36:20.416Z,52
2022-10-02T02:37:23.799Z,51
2022-10-02T02:38:25.319Z,50
2022-10-02T02:39:27.276Z,51
2022-10-02T02:40:29.305Z,51
2022-10-02T02:41:31.577Z,50
2022-10-02T02:42:33.256Z,51
2022-10-02T02:43:35.557Z,50
2022-10-02T02:44:37.277Z,50
2022-10-02T02:45:39.547Z,51
2022-10-02T02:46:41.397Z,50
2022-10-02T02:47:43.414Z,50
2022-10-02T02:48:45.696Z,50
2022-10-02T02:49:47.596Z,50
2022-10-02T02:50:49.522Z,50
2022-10-02T02:51:51.257Z,50
2022-10-02T02:52:53.300Z,50
2022-10-02T02:53:55.857Z,50
2022-10-02T02:54:57.357Z,50
2022-10-02T02:55:59.437Z,50
2022-10-02T02:57:01.537Z,50
2022-10-02T02:58:04.257Z,50
2022-10-02T02:59:06.377Z,50
2022-10-02T03:00:08.417Z,50
2022-10-02T03:01:10.741Z,50
2022-10-02T03:02:13.601Z,50
2022-10-02T03:03:16.477Z,50
2022-10-02T03:04:18.677Z,49
2022-10-02T03:05:20.620Z,50
2022-10-02T03:06:22.617Z,50
2022-10-02T03:07:24.838Z,50
2022-10-02T03:08:26.581Z,51
2022-10-02T03:09:28.858Z,50
2022-10-02T03:10:31.440Z,49
2022-10-02T03:11:33.596Z,50
2022-10-02T03:12:35.476Z,50
2022-10-02T03:13:37.496Z,50
2022-10-02T03:14:39.437Z,50
2022-10-02T03:15:41.600Z,50
2022-10-02T03:16:43.436Z,50
2022-10-02T03:17:45.186Z,50
2022-10-02T03:18:47.438Z,51
2022-10-02T03:19:49.437Z,50
2022-10-02T03:20:51.437Z,50
2022-10-02T03:21:53.619Z,51
2022-10-02T03:22:55.474Z,50
2022-10-02T03:23:58.000Z,50
2022-10-02T03:25:00.676Z,51
2022-10-02T03:26:02.696Z,51
2022-10-02T03:27:07.256Z,51
2022-10-02T03:28:09.624Z,50
2022-10-02T03:29:12.733Z,51
2022-10-02T03:30:15.524Z,51
2022-10-02T03:31:17.542Z,51
2022-10-02T03:32:19.236Z,51
2022-10-02T03:33:21.336Z,51
2022-10-02T03:34:23.818Z,51
2022-10-02T03:35:25.596Z,51
2022-10-02T03:36:27.597Z,51
2022-10-02T03:37:29.064Z,51
2022-10-02T03:38:30.317Z,52
2022-10-02T03:39:32.370Z,52
2022-10-02T03:40:34.445Z,52
2022-10-02T03:41:36.436Z,52
2022-10-02T03:42:38.377Z,52
2022-10-02T03:43:40.637Z,51
2022-10-02T03:44:42.324Z,51
2022-10-02T03:45:51.194Z,52
2022-10-02T03:46:46.508Z,51
2022-10-02T03:47:48.417Z,51
2022-10-02T03:48:50.417Z,53
2022-10-02T03:49:52.257Z,52
2022-10-02T03:50:54.633Z,53
2022-10-02T03:51:56.382Z,53
2022-10-02T03:52:58.256Z,53
2022-10-02T03:54:00.508Z,52
2022-10-02T03:55:02.323Z,53
2022-10-02T03:56:04.336Z,53
2022-10-02T03:57:06.476Z,54
2022-10-02T03:58:08.756Z,53
2022-10-02T03:59:11.417Z,54
2022-10-02T04:00:14.396Z,54
2022-10-02T04:01:16.770Z,53
2022-10-02T04:02:18.459Z,52
2022-10-02T04:03:20.327Z,53
2022-10-02T04:04:22.597Z,53
2022-10-02T04:05:24.493Z,53
2022-10-02T04:06:26.437Z,53
2022-10-02T04:07:28.496Z,53
2022-10-02T04:08:30.616Z,54
2022-10-02T04:09:32.558Z,53
2022-10-02T04:10:35.402Z,54
2022-10-02T04:11:37.397Z,53
2022-10-02T04:12:39.636Z,53
2022-10-02T04:13:41.297Z,54
2022-10-02T04:14:43.636Z,54
2022-10-02T04:15:45.383Z,53
2022-10-02T04:16:47.738Z,53
2022-10-02T04:17:49.577Z,54
2022-10-02T04:18:51.642Z,53
2022-10-02T04:19:53.696Z,53
2022-10-02T04:20:55.437Z,54
2022-10-02T04:21:57.444Z,54
2022-10-02T04:22:59.756Z,54
2022-10-02T04:24:01.717Z,54
2022-10-02T04:25:03.497Z,53
2022-10-02T04:26:05.683Z,52
2022-10-02T04:27:07.509Z,52
2022-10-02T04:28:09.816Z,52
2022-10-02T04:29:13.044Z,53
2022-10-02T04:30:15.297Z,52
2022-10-02T04:31:17.507Z,52
2022-10-02T04:32:19.452Z,52
2022-10-02T04:33:21.289Z,52
2022-10-02T04:34:23.337Z,52
2022-10-02T04:35:25.396Z,51
2022-10-02T04:36:27.417Z,52
2022-10-02T04:37:29.557Z,52
2022-10-02T04:38:31.437Z,53
2022-10-02T04:39:33.637Z,52
2022-10-02T04:40:35.356Z,52
2022-10-02T04:41:37.521Z,52
2022-10-02T04:42:39.336Z,51
2022-10-02T04:43:41.418Z,51
2022-10-02T04:44:43.496Z,51
2022-10-02T04:45:45.411Z,51
2022-10-02T04:46:47.357Z,51
2022-10-02T04:47:49.577Z,51
2022-10-02T04:48:51.557Z,52
2022-10-02T04:49:53.257Z,52
2022-10-02T04:50:55.557Z,51
2022-10-02T04:51:57.457Z,51
2022-10-02T04:52:59.859Z,51
2022-10-02T04:54:01.556Z,50
2022-10-02T04:55:03.579Z,51
2022-10-02T04:56:05.416Z,51
2022-10-02T04:57:07.400Z,51
2022-10-02T04:58:09.477Z,51
2022-10-02T04:59:12.017Z,51
2022-10-02T05:00:14.556Z,52
2022-10-02T05:01:18.018Z,51
2022-10-02T05:02:20.647Z,51
2022-10-02T05:03:22.977Z,51
2022-10-02T05:04:25.618Z,50
2022-10-02T05:05:27.624Z,51
2022-10-02T05:06:29.567Z,50
2022-10-02T05:07:32.458Z,51
2022-10-02T05:08:34.618Z,50
2022-10-02T05:09:36.473Z,51
2022-10-02T05:10:41.696Z,51
2022-10-02T05:11:44.496Z,51
2022-10-02T05:12:46.587Z,50
2022-10-02T05:13:49.036Z,50
2022-10-02T05:14:51.476Z,51
2022-10-02T05:15:53.557Z,51
2022-10-02T05:16:55.637Z,50
2022-10-02T05:17:57.876Z,51
2022-10-02T05:19:00.320Z,51
2022-10-02T05:20:02.437Z,51
2022-10-02T05:21:04.644Z,51
2022-10-02T05:22:06.518Z,51
2022-10-02T05:23:08.999Z,51
2022-10-02T05:24:11.498Z,51
2022-10-02T05:25:13.537Z,50
2022-10-02T05:26:15.497Z,50
2022-10-02T05:27:17.637Z,50
2022-10-02T05:28:20.149Z,50
2022-10-02T05:29:22.977Z,50
2022-10-02T05:30:25.616Z,51
2022-10-02T05:31:28.655Z,51
2022-10-02T05:32:30.756Z,51
2022-10-02T05:33:33.727Z,51
2022-10-02T05:34:36.677Z,51
2022-10-02T05:35:39.597Z,51
2022-10-02T05:36:42.917Z,50
2022-10-02T05:37:45.854Z,50
2022-10-02T05:38:48.316Z,50
2022-10-02T05:39:50.756Z,50
2022-10-02T05:40:52.496Z,50
2022-10-02T05:41:54.657Z,50
2022-10-02T05:42:56.696Z,50
2022-10-02T05:43:58.530Z,50
2022-10-02T05:45:00.378Z,51
2022-10-02T05:46:02.296Z,50
2022-10-02T05:47:04.636Z,51
2022-10-02T05:48:06.490Z,51
2022-10-02T05:49:08.756Z,51
2022-10-02T05:50:11.657Z,51
2022-10-02T05:51:13.517Z,51
2022-10-02T05:52:15.816Z,50
2022-10-02T05:53:17.717Z,50
2022-10-02T05:54:19.937Z,50
2022-10-02T05:55:21.785Z,50
2022-10-02T05:56:23.565Z,50
2022-10-02T05:57:25.775Z,51
2022-10-02T05:58:28.557Z,50
2022-10-02T05:59:30.921Z,51
2022-10-02T06:00:33.159Z,51
2022-10-02T06:01:36.081Z,51
2022-10-02T06:02:39.544Z,51
2022-10-02T06:03:41.841Z,51
2022-10-02T06:04:43.880Z,50
2022-10-02T06:05:47.177Z,50
2022-10-02T06:06:49.978Z,51
2022-10-02T06:07:52.690Z,50
2022-10-02T06:08:55.696Z,51
2022-10-02T06:09:57.736Z,50
2022-10-02T06:10:59.956Z,50
2022-10-02T06:12:02.816Z,50
2022-10-02T06:13:05.437Z,51
2022-10-02T06:14:07.762Z,50
2022-10-02T06:15:10.640Z,50
2022-10-02T06:16:12.775Z,50
2022-10-02T06:17:15.578Z,50
2022-10-02T06:18:17.556Z,50
2022-10-02T06:19:19.916Z,49
2022-10-02T06:20:21.657Z,49
2022-10-02T06:21:23.736Z,50
2022-10-02T06:22:25.738Z,50
2022-10-02T06:23:28.776Z,50
2022-10-02T06:24:30.824Z,51
2022-10-02T06:25:32.921Z,50
2022-10-02T06:26:36.058Z,49
2022-10-02T06:27:37.718Z,50
2022-10-02T06:28:39.979Z,49
2022-10-02T06:29:42.845Z,49
2022-10-02T06:30:44.850Z,50
2022-10-02T06:31:46.575Z,50
2022-10-02T06:32:49.060Z,51
2022-10-02T06:33:52.097Z,50
2022-10-02T06:34:54.840Z,50
2022-10-02T06:35:58.176Z,50
2022-10-02T06:37:00.957Z,50
2022-10-02T06:38:02.636Z,49
2022-10-02T06:39:05.017Z,49
2022-10-02T06:40:07.912Z,49
2022-10-02T06:41:10.797Z,49
2022-10-02T06:42:12.595Z,50
2022-10-02T06:43:15.778Z,50
2022-10-02T06:44:17.490Z,49
2022-10-02T06:45:19.557Z,49
2022-10-02T06:46:22.401Z,49
2022-10-02T06:47:24.576Z,49
2022-10-02T06:48:26.496Z,49
2022-10-02T06:49:28.825Z,49
2022-10-02T06:50:30.880Z,49
2022-10-02T06:51:32.436Z,50
2022-10-02T06:52:37.872Z,50
2022-10-02T06:53:36.669Z,49
2022-10-02T06:54:38.956Z,49
2022-10-02T06:55:41.337Z,49
2022-10-02T06:56:43.717Z,49
2022-10-02T06:57:45.604Z,49
2022-10-02T06:58:48.056Z,47
2022-10-02T06:59:50.902Z,48
2022-10-02T07:00:54.308Z,49
2022-10-02T07:01:57.484Z,48
2022-10-02T07:02:58.496Z,50
2022-10-02T07:04:00.656Z,49
2022-10-02T07:05:02.248Z,48
2022-10-02T07:06:04.966Z,47
2022-10-02T07:07:07.528Z,48
2022-10-02T07:08:09.536Z,47
2022-10-02T07:09:11.665Z,47
2022-10-02T07:10:13.756Z,49
2022-10-02T07:11:16.591Z,49
2022-10-02T07:12:18.853Z,50
2022-10-02T07:13:20.618Z,48
2022-10-02T07:14:22.633Z,48
2022-10-02T07:15:25.832Z,47
2022-10-02T07:16:27.948Z,48
2022-10-02T07:17:29.818Z,48
2022-10-02T07:18:31.776Z,48
2022-10-02T07:19:34.877Z,47
2022-10-02T07:20:37.836Z,48
2022-10-02T07:22:50.620Z,48
2022-10-02T07:23:52.562Z,47
2022-10-02T07:24:54.814Z,48
2022-10-02T07:25:56.857Z,47
2022-10-02T07:26:59.856Z,47
2022-10-02T07:28:03.290Z,48
2022-10-02T07:29:05.737Z,48
2022-10-02T07:30:08.116Z,47
2022-10-02T07:31:10.834Z,47
2022-10-02T07:32:14.337Z,47
2022-10-02T07:33:17.099Z,48
2022-10-02T07:34:19.816Z,46
2022-10-02T07:35:21.762Z,48
2022-10-02T07:36:23.482Z,48
2022-10-02T07:37:25.824Z,48
2022-10-02T07:38:28.622Z,48
2022-10-02T07:39:31.321Z,49
2022-10-02T07:40:33.553Z,49
2022-10-02T07:41:35.316Z,48
2022-10-02T07:42:37.558Z,48
2022-10-02T07:43:39.379Z,48
2022-10-02T07:44:41.718Z,47
2022-10-02T07:45:43.831Z,47
2022-10-02T07:46:45.866Z,47
2022-10-02T07:47:48.378Z,46
2022-10-02T07:48:50.758Z,47
2022-10-02T07:49:52.783Z,47
2022-10-02T07:50:54.716Z,47
2022-10-02T07:51:57.230Z,48
2022-10-02T07:52:59.996Z,47
2022-10-02T07:54:02.197Z,48
2022-10-02T07:55:05.096Z,47
2022-10-02T07:59:37.140Z,47
2022-10-02T08:00:40.556Z,47
2022-10-02T08:01:44.058Z,47
2022-10-02T08:02:46.857Z,47
2022-10-02T08:03:49.058Z,47
2022-10-02T08:04:51.739Z,47
2022-10-02T08:05:54.118Z,47
2022-10-02T08:06:56.558Z,47
2022-10-02T08:07:58.957Z,47
2022-10-02T08:09:02.378Z,47
2022-10-02T08:10:04.669Z,47
2022-10-02T08:11:08.158Z,47
2022-10-02T08:12:11.257Z,47
2022-10-02T08:13:13.914Z,48
2022-10-02T08:14:16.737Z,47
2022-10-02T08:15:19.257Z,47
2022-10-02T08:16:22.257Z,47
2022-10-02T08:17:24.739Z,47
2022-10-02T08:18:34.449Z,47
2022-10-02T08:19:29.785Z,47
2022-10-02T08:20:31.986Z,46
2022-10-02T08:21:34.917Z,47
2022-10-02T08:22:38.018Z,48
2022-10-02T08:23:41.298Z,48
2022-10-02T08:24:43.640Z,48
2022-10-02T08:25:45.760Z,48
2022-10-02T08:26:47.777Z,47
2022-10-02T08:27:50.851Z,47
2022-10-02T08:28:52.834Z,47
2022-10-02T08:29:55.278Z,47
2022-10-02T08:30:57.851Z,47
2022-10-02T08:32:00.850Z,47
2022-10-02T08:33:03.911Z,47
2022-10-02T08:34:06.722Z,47
2022-10-02T08:35:08.992Z,48
2022-10-02T08:36:12.418Z,47
2022-10-02T08:37:14.991Z,47
2022-10-02T08:38:18.145Z,47
2022-10-02T08:39:21.012Z,47
2022-10-02T08:40:24.032Z,47
2022-10-02T08:41:26.750Z,49
2022-10-02T08:42:29.942Z,49
2022-10-02T08:43:31.537Z,47
2022-10-02T08:44:36.412Z,47
2022-10-02T08:45:37.892Z,47
2022-10-02T08:46:39.987Z,47
2022-10-02T08:47:42.071Z,47
2022-10-02T08:48:44.798Z,47
2022-10-02T08:49:47.111Z,47
2022-10-02T08:50:49.972Z,47
2022-10-02T08:51:52.772Z,47
2022-10-02T08:52:56.118Z,48
2022-10-02T08:53:59.037Z,48
2022-10-02T08:55:01.699Z,47
2022-10-02T08:56:03.526Z,47
2022-10-02T08:57:05.972Z,47
2022-10-02T08:58:09.313Z,47
2022-10-02T08:59:11.652Z,47
2022-10-02T09:00:13.993Z,47
2022-10-02T09:01:17.232Z,46
2022-10-02T09:02:20.178Z,46
2022-10-02T09:03:22.791Z,46
2022-10-02T09:04:24.991Z,46
2022-10-02T09:05:28.094Z,46
2022-10-02T09:06:30.952Z,46
2022-10-02T09:07:34.114Z,47
2022-10-02T09:08:36.563Z,47
2022-10-02T09:09:38.917Z,47
2022-10-02T09:10:41.953Z,47
2022-10-02T09:11:45.560Z,46
2022-10-02T09:12:48.372Z,45
2022-10-02T09:13:50.767Z,47
2022-10-02T09:14:56.895Z,46
2022-10-02T09:15:56.789Z,46
2022-10-02T09:16:58.814Z,46
2022-10-02T09:18:00.911Z,46
2022-10-02T09:19:04.151Z,44
2022-10-02T09:20:07.334Z,44
2022-10-02T09:21:11.641Z,46
2022-10-02T09:22:12.560Z,47
2022-10-02T09:23:14.677Z,46
2022-10-02T09:24:17.271Z,48
2022-10-02T09:25:20.031Z,46
2022-10-02T09:26:23.091Z,45
2022-10-02T09:27:25.759Z,45
2022-10-02T09:28:28.169Z,46
2022-10-02T09:29:31.935Z,47
2022-10-02T09:30:34.851Z,45
2022-10-02T09:31:38.048Z,46
2022-10-02T09:32:40.961Z,44
2022-10-02T09:33:44.092Z,44
2022-10-02T09:34:47.312Z,45
2022-10-02T09:35:49.693Z,44
2022-10-02T09:36:51.553Z,44
2022-10-02T09:37:53.332Z,45
2022-10-02T09:38:55.560Z,44
2022-10-02T09:39:57.599Z,44
2022-10-02T09:40:59.571Z,44
2022-10-02T09:42:01.862Z,45
2022-10-02T09:43:05.119Z,46
2022-10-02T09:44:07.797Z,46
2022-10-02T09:45:10.616Z,46
2022-10-02T09:46:12.997Z,46
2022-10-02T09:47:15.751Z,47
2022-10-02T09:48:17.517Z,47
2022-10-02T09:49:19.632Z,47
2022-10-02T09:50:22.223Z,46
2022-10-02T09:51:24.671Z,46
2022-10-02T09:52:26.854Z,48
2022-10-02T09:53:29.011Z,47
2022-10-02T09:54:31.876Z,46
2022-10-02T09:55:33.776Z,47
2022-10-02T09:56:37.415Z,47
2022-10-02T09:57:40.112Z,47
2022-10-02T09:58:43.312Z,48
2022-10-02T09:59:45.932Z,47
2022-10-02T10:00:48.834Z,47
2022-10-02T10:01:50.840Z,46
2022-10-02T10:02:52.979Z,46
2022-10-02T10:03:56.211Z,46
2022-10-02T10:05:05.904Z,47
2022-10-02T10:06:01.211Z,47
2022-10-02T10:07:04.093Z,47
2022-10-02T10:08:06.836Z,47
2022-10-02T10:09:08.986Z,48
2022-10-02T10:10:12.338Z,49
2022-10-02T10:11:15.191Z,48
2022-10-02T10:12:17.611Z,48
2022-10-02T10:13:19.892Z,49
2022-10-02T10:14:21.911Z,47
2022-10-02T10:15:24.915Z,46
2022-10-02T10:16:27.899Z,47
2022-10-02T10:17:29.773Z,48
2022-10-02T10:18:32.472Z,48
2022-10-02T10:19:35.843Z,48
2022-10-02T10:20:39.073Z,47
2022-10-02T10:21:41.910Z,47
2022-10-02T10:22:44.080Z,47
2022-10-02T10:23:47.013Z,47
2022-10-02T10:24:50.215Z,47
2022-10-02T10:25:53.181Z,47
2022-10-02T10:26:55.732Z,46
2022-10-02T10:27:58.630Z,48
2022-10-02T10:29:00.991Z,47
2022-10-02T10:30:03.256Z,47
2022-10-02T10:31:06.551Z,48
2022-10-02T10:32:09.212Z,48
2022-10-02T10:33:11.777Z,48
2022-10-02T10:34:15.331Z,48
2022-10-02T10:35:18.423Z,48
2022-10-02T10:36:21.412Z,47
2022-10-02T10:37:24.233Z,47
2022-10-02T10:38:27.254Z,46
2022-10-02T10:39:30.251Z,46
2022-10-02T10:40:32.892Z,46
2022-10-02T10:41:35.666Z,46
2022-10-02T10:42:56.333Z,46
2022-10-02T10:43:41.452Z,45
2022-10-02T10:44:44.215Z,49
2022-10-02T10:45:47.031Z,47
2022-10-02T10:46:48.927Z,47
2022-10-02T10:47:51.717Z,47
2022-10-02T10:48:54.716Z,47
2022-10-02T10:49:56.932Z,47
2022-10-02T10:50:59.414Z,46
2022-10-02T10:52:01.909Z,46
2022-10-02T10:53:04.041Z,45
2022-10-02T10:54:06.833Z,45
2022-10-02T10:55:10.051Z,47
2022-10-02T10:56:12.976Z,47
2022-10-02T10:57:15.957Z,46
2022-10-02T10:58:18.202Z,46
2022-10-02T10:59:25.103Z,45
2022-10-02T11:00:24.220Z,45
2022-10-02T11:01:27.142Z,46
2022-10-02T11:02:30.139Z,48
2022-10-02T11:03:33.240Z,47
2022-10-02T11:04:35.824Z,47
2022-10-02T11:05:38.052Z,47
2022-10-02T11:06:45.910Z,46
2022-10-02T11:07:44.847Z,47
2022-10-02T11:08:47.405Z,45
2022-10-02T11:09:50.766Z,45
2022-10-02T11:10:52.740Z,45
2022-10-02T11:11:54.492Z,47
2022-10-02T11:12:56.915Z,45
2022-10-02T11:13:58.212Z,45
2022-10-02T11:14:59.233Z,45
2022-10-02T11:16:00.303Z,46
2022-10-02T11:17:01.271Z,45
2022-10-02T11:18:02.275Z,45
2022-10-02T11:19:03.257Z,45
2022-10-02T11:20:04.302Z,46
2022-10-02T11:21:05.361Z,46
2022-10-02T11:22:07.277Z,46
2022-10-02T11:23:09.312Z,45
2022-10-02T11:24:11.271Z,45
2022-10-02T11:25:13.223Z,45
2022-10-02T11:26:13.367Z,45
2022-10-02T11:27:15.288Z,45
2022-10-02T11:28:16.317Z,45
2022-10-02T11:29:17.304Z,45
2022-10-02T11:30:18.292Z,45
2022-10-02T11:31:19.363Z,45
2022-10-02T11:32:21.278Z,44
2022-10-02T11:33:23.238Z,44
2022-10-02T11:34:25.292Z,44
2022-10-02T11:35:27.371Z,44
2022-10-02T11:36:29.312Z,45
2022-10-02T11:37:31.353Z,44
2022-10-02T11:38:33.690Z,44
2022-10-02T11:39:35.336Z,44
2022-10-02T11:40:37.231Z,44
2022-10-02T11:41:38.718Z,44
2022-10-02T11:42:39.332Z,45
2022-10-02T11:43:44.008Z,45
2022-10-02T11:44:42.331Z,44
2022-10-02T11:45:44.460Z,45
2022-10-02T11:46:46.311Z,45
2022-10-02T11:47:47.254Z,45
2022-10-02T11:48:49.337Z,44
2022-10-02T11:49:51.412Z,45
2022-10-02T11:50:53.379Z,45
2022-10-02T11:51:55.471Z,44
2022-10-02T11:52:57.290Z,44
2022-10-02T11:53:58.231Z,45
2022-10-02T11:54:59.340Z,44
2022-10-02T11:56:01.379Z,44
2022-10-02T11:57:03.411Z,44
2022-10-02T11:58:05.195Z,45
2022-10-02T11:59:06.287Z,46
2022-10-02T12:00:07.312Z,47
2022-10-02T12:01:09.452Z,46
2022-10-02T12:02:14.489Z,46
2022-10-02T12:03:13.450Z,45
2022-10-02T12:04:14.254Z,45
2022-10-02T12:05:16.271Z,46
2022-10-02T12:06:17.356Z,45
2022-10-02T12:07:19.222Z,46
2022-10-02T12:08:20.452Z,45
2022-10-02T12:09:22.273Z,45
2022-10-02T12:10:24.512Z,45
2022-10-02T12:11:26.222Z,45
2022-10-02T12:12:28.049Z,45
2022-10-02T12:13:28.986Z,45
2022-10-02T12:14:30.374Z,45
2022-10-02T12:15:32.355Z,45
2022-10-02T12:16:33.368Z,45
2022-10-02T12:17:35.331Z,45
2022-10-02T12:18:37.411Z,45
2022-10-02T12:19:39.341Z,-1
2022-10-02T12:20:41.381Z,44
2022-10-02T12:21:43.277Z,44
2022-10-02T12:22:44.183Z,45
2022-10-02T12:23:45.319Z,46
2022-10-02T12:24:46.297Z,45
2022-10-02T12:25:47.365Z,44
2022-10-02T12:26:49.292Z,45
2022-10-02T12:27:51.341Z,45
2022-10-02T12:28:53.297Z,45
2022-10-02T12:29:55.264Z,45
2022-10-02T12:30:56.386Z,45
2022-10-02T12:31:58.403Z,44
2022-10-02T12:33:00.291Z,44
2022-10-02T12:34:01.354Z,44
2022-10-02T12:35:02.394Z,44
2022-10-02T12:36:04.292Z,45
2022-10-02T12:37:05.733Z,43
2022-10-02T12:38:07.255Z,43
2022-10-02T12:39:08.296Z,43
2022-10-02T12:40:09.345Z,44
2022-10-02T12:41:10.301Z,44
2022-10-02T12:42:11.275Z,43
2022-10-02T12:43:12.314Z,45
2022-10-02T12:44:13.448Z,43
2022-10-02T12:45:15.604Z,43
2022-10-02T12:46:17.703Z,44
2022-10-02T12:47:19.592Z,42
2022-10-02T12:48:22.113Z,44
2022-10-02T12:49:25.094Z,42
2022-10-02T12:50:27.192Z,42
2022-10-02T12:51:30.011Z,42
2022-10-02T12:52:32.539Z,43
2022-10-02T12:53:35.493Z,43
2022-10-02T12:54:41.919Z,43
2022-10-02T12:55:44.667Z,43
2022-10-02T12:56:48.333Z,43
2022-10-02T12:57:51.311Z,42
2022-10-02T12:58:54.652Z,42
2022-10-02T12:59:58.812Z,42
2022-10-02T13:01:01.169Z,42
2022-10-02T13:02:03.570Z,42
2022-10-02T13:03:07.423Z,42
2022-10-02T13:04:12.459Z,42
2022-10-02T13:05:15.040Z,42
2022-10-02T13:06:16.651Z,42
2022-10-02T13:07:18.506Z,43
2022-10-02T13:08:21.756Z,42
2022-10-02T13:09:29.778Z,43
2022-10-02T13:10:29.623Z,43
2022-10-02T13:11:31.623Z,43
2022-10-02T13:12:33.639Z,43
2022-10-02T13:13:39.552Z,43
2022-10-02T13:14:39.732Z,43
2022-10-02T13:15:41.896Z,43
2022-10-02T13:16:43.888Z,44
2022-10-02T13:17:46.512Z,43
2022-10-02T13:18:48.553Z,44
2022-10-02T13:19:50.625Z,43
2022-10-02T13:20:52.862Z,44
2022-10-02T13:21:54.563Z,44
2022-10-02T13:22:56.751Z,44
2022-10-02T13:24:01.410Z,43
2022-10-02T13:25:04.847Z,44
2022-10-02T13:26:06.455Z,44
2022-10-02T13:27:08.579Z,44
2022-10-02T13:28:10.694Z,44
2022-10-02T13:29:15.671Z,44
2022-10-02T13:30:17.672Z,44
2022-10-02T13:31:19.639Z,44
2022-10-02T13:32:22.360Z,44
2022-10-02T13:33:24.774Z,45
2022-10-02T13:34:26.992Z,45
2022-10-02T13:35:29.003Z,44
2022-10-02T13:36:35.107Z,44
2022-10-02T13:37:37.433Z,44
2022-10-02T13:38:39.911Z,44
2022-10-02T13:39:43.613Z,44
2022-10-02T13:40:45.824Z,43
2022-10-02T13:41:47.531Z,44
2022-10-02T13:42:49.864Z,43
2022-10-02T13:43:56.476Z,43
2022-10-02T13:44:54.852Z,43
2022-10-02T13:45:56.734Z,44
2022-10-02T13:46:58.631Z,44
2022-10-02T13:48:00.744Z,44
2022-10-02T13:49:02.812Z,45
2022-10-02T13:50:04.791Z,45
2022-10-02T13:51:08.119Z,44
2022-10-02T13:52:11.470Z,44
2022-10-02T13:53:13.422Z,44
2022-10-02T13:54:16.432Z,44
2022-10-02T13:55:18.374Z,43
2022-10-02T13:56:19.431Z,43
2022-10-02T13:57:21.287Z,43
2022-10-02T13:58:22.362Z,44
2022-10-02T13:59:23.477Z,43
2022-10-02T14:00:25.800Z,44
2022-10-02T14:01:27.451Z,45
2022-10-02T14:02:29.411Z,45
2022-10-02T14:03:31.443Z,44
2022-10-02T14:04:33.412Z,45
2022-10-02T14:05:35.552Z,45
2022-10-02T14:06:37.420Z,44
2022-10-02T14:07:39.293Z,45
2022-10-02T14:08:40.320Z,45
2022-10-02T14:09:41.390Z,44
2022-10-02T14:10:43.310Z,44
2022-10-02T14:11:44.311Z,44
2022-10-02T14:12:45.364Z,46
2022-10-02T14:13:46.352Z,46
2022-10-02T14:14:47.352Z,46
2022-10-02T14:15:48.431Z,46
2022-10-02T14:16:49.516Z,47
2022-10-02T14:17:51.345Z,47
2022-10-02T14:18:52.322Z,47
2022-10-02T14:19:53.371Z,46
2022-10-02T14:20:54.407Z,47
2022-10-02T14:21:55.333Z,46
2022-10-02T14:22:56.391Z,46
2022-10-02T14:23:57.280Z,47
2022-10-02T14:24:58.312Z,46
2022-10-02T14:25:59.378Z,46
2022-10-02T14:27:00.433Z,47
2022-10-02T14:28:01.458Z,46
2022-10-02T14:29:07.810Z,46
2022-10-02T14:30:04.539Z,45
2022-10-02T14:31:05.408Z,45
2022-10-02T14:32:07.520Z,45
2022-10-02T14:33:09.369Z,45
2022-10-02T14:34:10.424Z,45
2022-10-02T14:35:12.506Z,45
2022-10-02T14:36:14.427Z,45
2022-10-02T14:37:16.539Z,45
2022-10-02T14:38:18.312Z,46
2022-10-02T14:39:19.382Z,49
2022-10-02T14:40:20.571Z,49
2022-10-02T14:41:22.452Z,48
2022-10-02T14:42:24.318Z,47
2022-10-02T14:43:25.372Z,47
2022-10-02T14:44:26.412Z,47
2022-10-02T14:45:27.444Z,47
2022-10-02T14:46:29.392Z,48
2022-10-02T14:47:30.372Z,48
2022-10-02T14:48:31.331Z,48
2022-10-02T14:49:32.454Z,48
2022-10-02T14:50:34.387Z,47
2022-10-02T14:51:35.603Z,47
2022-10-02T14:52:36.392Z,48
2022-10-02T14:53:38.359Z,48
2022-10-02T14:54:39.411Z,47
2022-10-02T14:55:41.421Z,47
2022-10-02T14:56:43.398Z,47